sensor_id;sensor_type;location;lat;lon;timestamp;temperature;humidity
3202;DHT22;34843;48.744;8.958;2023-03-07T00:00:32;1.20;99.90
3202;DHT22;34843;48.744;8.958;2023-03-07T00:02:57;1.20;99.90
3202;DHT22;34843;48.744;8.958;2023-03-07T00:05:22;1.20;99.90
3202;DHT22;34843;48.744;8.958;2023-03-07T00:07:48;1.20;99.90
3202;DHT22;34843;48.744;8.958;2023-03-07T00:10:14;1.10;99.90
3202;DHT22;34843;48.744;8.958;2023-03-07T00:12:39;1.10;99.90
3202;DHT22;34843;48.744;8.958;2023-03-07T00:15:05;1.10;99.90
3202;DHT22;34843;48.744;8.958;2023-03-07T00:17:37;1.10;99.90
3202;DHT22;34843;48.744;8.958;2023-03-07T00:20:04;1.20;99.90
3202;DHT22;34843;48.744;8.958;2023-03-07T00:22:32;1.30;99.90
3202;DHT22;34843;48.744;8.958;2023-03-07T00:24:57;1.40;99.90
3202;DHT22;34843;48.744;8.958;2023-03-07T00:27:23;1.40;99.90
3202;DHT22;34843;48.744;8.958;2023-03-07T00:29:49;1.40;99.90
3202;DHT22;34843;48.744;8.958;2023-03-07T00:32:15;1.40;99.90
3202;DHT22;34843;48.744;8.958;2023-03-07T00:34:40;1.40;99.90
3202;DHT22;34843;48.744;8.958;2023-03-07T00:37:06;1.40;99.90
3202;DHT22;34843;48.744;8.958;2023-03-07T00:39:31;1.50;99.90
3202;DHT22;34843;48.744;8.958;2023-03-07T00:41:57;1.50;99.90
3202;DHT22;34843;48.744;8.958;2023-03-07T00:44:22;1.50;99.90
3202;DHT22;34843;48.744;8.958;2023-03-07T00:46:49;1.50;99.90
3202;DHT22;34843;48.744;8.958;2023-03-07T00:49:15;1.40;99.90
3202;DHT22;34843;48.744;8.958;2023-03-07T00:51:40;1.50;99.90
3202;DHT22;34843;48.744;8.958;2023-03-07T00:54:06;1.50;99.90
3202;DHT22;34843;48.744;8.958;2023-03-07T00:56:31;1.60;99.90
3202;DHT22;34843;48.744;8.958;2023-03-07T00:58:57;1.60;99.90
3202;DHT22;34843;48.744;8.958;2023-03-07T01:01:23;1.60;99.90
3202;DHT22;34843;48.744;8.958;2023-03-07T01:03:50;1.70;99.90
3202;DHT22;34843;48.744;8.958;2023-03-07T01:06:19;1.80;99.90
3202;DHT22;34843;48.744;8.958;2023-03-07T01:08:45;2.00;99.90
3202;DHT22;34843;48.744;8.958;2023-03-07T01:11:11;1.80;99.90
3202;DHT22;34843;48.744;8.958;2023-03-07T01:13:37;1.80;99.90
3202;DHT22;34843;48.744;8.958;2023-03-07T01:16:23;1.80;99.90
3202;DHT22;34843;48.744;8.958;2023-03-07T01:18:54;1.70;99.90
3202;DHT22;34843;48.744;8.958;2023-03-07T01:21:32;1.70;99.90
3202;DHT22;34843;48.744;8.958;2023-03-07T01:23:57;1.70;99.90
3202;DHT22;34843;48.744;8.958;2023-03-07T01:26:26;1.70;99.90
3202;DHT22;34843;48.744;8.958;2023-03-07T01:28:54;1.70;99.90
3202;DHT22;34843;48.744;8.958;2023-03-07T01:31:20;1.80;99.90
3202;DHT22;34843;48.744;8.958;2023-03-07T01:33:46;1.70;99.90
3202;DHT22;34843;48.744;8.958;2023-03-07T01:36:26;1.80;99.90
3202;DHT22;34843;48.744;8.958;2023-03-07T01:39:02;1.80;99.90
3202;DHT22;34843;48.744;8.958;2023-03-07T01:41:31;1.80;99.90
3202;DHT22;34843;48.744;8.958;2023-03-07T01:44:01;1.80;99.90
3202;DHT22;34843;48.744;8.958;2023-03-07T01:46:52;1.90;99.90
3202;DHT22;34843;48.744;8.958;2023-03-07T01:49:27;1.90;99.90
3202;DHT22;34843;48.744;8.958;2023-03-07T01:52:01;1.90;99.90
3202;DHT22;34843;48.744;8.958;2023-03-07T01:54:30;1.90;99.90
3202;DHT22;34843;48.744;8.958;2023-03-07T01:56:57;2.00;99.90
3202;DHT22;34843;48.744;8.958;2023-03-07T01:59:28;2.00;99.90
3202;DHT22;34843;48.744;8.958;2023-03-07T02:01:58;2.00;99.90
3202;DHT22;34843;48.744;8.958;2023-03-07T02:04:31;2.00;99.90
3202;DHT22;34843;48.744;8.958;2023-03-07T02:06:59;1.90;99.90
3202;DHT22;34843;48.744;8.958;2023-03-07T02:09:25;1.90;99.90
3202;DHT22;34843;48.744;8.958;2023-03-07T02:11:52;1.90;99.90
3202;DHT22;34843;48.744;8.958;2023-03-07T02:14:18;1.90;99.90
3202;DHT22;34843;48.744;8.958;2023-03-07T02:16:44;1.90;99.90
3202;DHT22;34843;48.744;8.958;2023-03-07T02:19:23;2.00;99.90
3202;DHT22;34843;48.744;8.958;2023-03-07T02:21:58;2.00;99.90
3202;DHT22;34843;48.744;8.958;2023-03-07T02:27:04;2.00;99.90
3202;DHT22;34843;48.744;8.958;2023-03-07T02:29:30;2.00;99.90
3202;DHT22;34843;48.744;8.958;2023-03-07T02:31:56;2.00;99.90
3202;DHT22;34843;48.744;8.958;2023-03-07T02:34:26;2.00;99.90
3202;DHT22;34843;48.744;8.958;2023-03-07T02:37:10;2.00;99.90
3202;DHT22;34843;48.744;8.958;2023-03-07T02:39:38;2.00;99.90
3202;DHT22;34843;48.744;8.958;2023-03-07T02:42:13;2.00;99.90
3202;DHT22;34843;48.744;8.958;2023-03-07T02:44:46;2.00;99.90
3202;DHT22;34843;48.744;8.958;2023-03-07T02:47:11;2.00;99.90
3202;DHT22;34843;48.744;8.958;2023-03-07T02:49:37;1.90;99.90
3202;DHT22;34843;48.744;8.958;2023-03-07T02:52:03;1.90;99.90
3202;DHT22;34843;48.744;8.958;2023-03-07T02:54:28;1.90;99.90
3202;DHT22;34843;48.744;8.958;2023-03-07T02:56:54;1.80;99.90
3202;DHT22;34843;48.744;8.958;2023-03-07T02:59:20;1.80;99.90
3202;DHT22;34843;48.744;8.958;2023-03-07T03:01:45;1.80;99.90
3202;DHT22;34843;48.744;8.958;2023-03-07T03:04:11;1.80;99.90
3202;DHT22;34843;48.744;8.958;2023-03-07T03:06:37;1.70;99.90
3202;DHT22;34843;48.744;8.958;2023-03-07T03:09:02;1.70;99.90
3202;DHT22;34843;48.744;8.958;2023-03-07T03:11:28;1.70;99.90
3202;DHT22;34843;48.744;8.958;2023-03-07T03:13:53;1.80;99.90
3202;DHT22;34843;48.744;8.958;2023-03-07T03:16:19;1.80;99.90
3202;DHT22;34843;48.744;8.958;2023-03-07T03:18:44;1.90;99.90
3202;DHT22;34843;48.744;8.958;2023-03-07T03:21:10;2.00;99.90
3202;DHT22;34843;48.744;8.958;2023-03-07T03:23:36;2.00;99.90
3202;DHT22;34843;48.744;8.958;2023-03-07T03:26:05;2.10;99.90
3202;DHT22;34843;48.744;8.958;2023-03-07T03:28:33;2.10;99.90
3202;DHT22;34843;48.744;8.958;2023-03-07T03:31:01;2.20;99.90
3202;DHT22;34843;48.744;8.958;2023-03-07T03:33:27;2.20;99.90
3202;DHT22;34843;48.744;8.958;2023-03-07T03:35:57;2.30;99.90
3202;DHT22;34843;48.744;8.958;2023-03-07T03:38:23;2.30;99.90
3202;DHT22;34843;48.744;8.958;2023-03-07T03:40:49;2.30;99.90
3202;DHT22;34843;48.744;8.958;2023-03-07T03:43:14;2.30;99.90
3202;DHT22;34843;48.744;8.958;2023-03-07T03:45:40;2.30;99.90
3202;DHT22;34843;48.744;8.958;2023-03-07T03:48:07;2.30;99.90
3202;DHT22;34843;48.744;8.958;2023-03-07T03:50:32;2.40;99.90
3202;DHT22;34843;48.744;8.958;2023-03-07T03:52:59;2.40;99.90
3202;DHT22;34843;48.744;8.958;2023-03-07T03:55:25;2.30;99.90
3202;DHT22;34843;48.744;8.958;2023-03-07T03:57:50;2.30;99.90
3202;DHT22;34843;48.744;8.958;2023-03-07T04:00:16;2.30;99.90
3202;DHT22;34843;48.744;8.958;2023-03-07T04:02:44;2.30;99.90
3202;DHT22;34843;48.744;8.958;2023-03-07T04:05:10;2.30;99.90
3202;DHT22;34843;48.744;8.958;2023-03-07T04:07:36;2.30;99.90
3202;DHT22;34843;48.744;8.958;2023-03-07T04:10:02;2.40;99.90
3202;DHT22;34843;48.744;8.958;2023-03-07T04:12:27;2.40;99.90
3202;DHT22;34843;48.744;8.958;2023-03-07T04:14:53;2.40;99.90
3202;DHT22;34843;48.744;8.958;2023-03-07T04:17:19;2.30;99.90
3202;DHT22;34843;48.744;8.958;2023-03-07T04:19:44;2.40;99.90
3202;DHT22;34843;48.744;8.958;2023-03-07T04:22:09;2.40;99.90
3202;DHT22;34843;48.744;8.958;2023-03-07T04:24:35;2.40;99.90
3202;DHT22;34843;48.744;8.958;2023-03-07T04:27:00;2.40;99.90
3202;DHT22;34843;48.744;8.958;2023-03-07T04:29:26;2.50;99.90
3202;DHT22;34843;48.744;8.958;2023-03-07T04:31:51;2.40;99.90
3202;DHT22;34843;48.744;8.958;2023-03-07T04:34:17;2.50;99.90
3202;DHT22;34843;48.744;8.958;2023-03-07T04:36:42;2.50;99.90
3202;DHT22;34843;48.744;8.958;2023-03-07T04:39:08;2.50;99.90
3202;DHT22;34843;48.744;8.958;2023-03-07T04:41:33;2.50;99.90
3202;DHT22;34843;48.744;8.958;2023-03-07T04:43:59;2.60;99.90
3202;DHT22;34843;48.744;8.958;2023-03-07T04:46:25;2.60;99.90
3202;DHT22;34843;48.744;8.958;2023-03-07T04:48:50;2.60;99.90
3202;DHT22;34843;48.744;8.958;2023-03-07T04:51:16;2.60;99.90
3202;DHT22;34843;48.744;8.958;2023-03-07T04:53:42;2.60;99.90
3202;DHT22;34843;48.744;8.958;2023-03-07T04:56:08;2.60;99.90
3202;DHT22;34843;48.744;8.958;2023-03-07T04:58:34;2.60;99.90
3202;DHT22;34843;48.744;8.958;2023-03-07T05:01:01;2.70;99.90
3202;DHT22;34843;48.744;8.958;2023-03-07T05:03:27;2.60;99.90
3202;DHT22;34843;48.744;8.958;2023-03-07T05:05:53;2.60;99.90
3202;DHT22;34843;48.744;8.958;2023-03-07T05:08:20;2.60;99.90
3202;DHT22;34843;48.744;8.958;2023-03-07T05:10:46;2.60;99.90
3202;DHT22;34843;48.744;8.958;2023-03-07T05:13:11;2.70;99.90
3202;DHT22;34843;48.744;8.958;2023-03-07T05:15:37;2.60;99.90
3202;DHT22;34843;48.744;8.958;2023-03-07T05:18:03;2.60;99.90
3202;DHT22;34843;48.744;8.958;2023-03-07T05:20:28;2.60;99.90
3202;DHT22;34843;48.744;8.958;2023-03-07T05:22:55;2.60;99.90
3202;DHT22;34843;48.744;8.958;2023-03-07T05:25:21;2.50;99.90
3202;DHT22;34843;48.744;8.958;2023-03-07T05:27:47;2.50;99.90
3202;DHT22;34843;48.744;8.958;2023-03-07T05:30:13;2.50;99.90
3202;DHT22;34843;48.744;8.958;2023-03-07T05:32:39;2.50;99.90
3202;DHT22;34843;48.744;8.958;2023-03-07T05:35:05;2.50;99.90
3202;DHT22;34843;48.744;8.958;2023-03-07T05:37:31;2.50;99.90
3202;DHT22;34843;48.744;8.958;2023-03-07T05:39:56;2.40;99.90
3202;DHT22;34843;48.744;8.958;2023-03-07T05:42:22;2.40;99.90
3202;DHT22;34843;48.744;8.958;2023-03-07T05:44:48;2.30;99.90
3202;DHT22;34843;48.744;8.958;2023-03-07T05:47:13;2.30;99.90
3202;DHT22;34843;48.744;8.958;2023-03-07T05:49:39;2.30;99.90
3202;DHT22;34843;48.744;8.958;2023-03-07T05:52:04;2.30;99.90
3202;DHT22;34843;48.744;8.958;2023-03-07T05:54:30;2.30;99.90
3202;DHT22;34843;48.744;8.958;2023-03-07T05:56:55;2.30;99.90
3202;DHT22;34843;48.744;8.958;2023-03-07T05:59:21;2.30;99.90
3202;DHT22;34843;48.744;8.958;2023-03-07T06:01:46;2.30;99.90
3202;DHT22;34843;48.744;8.958;2023-03-07T06:04:12;2.20;99.90
3202;DHT22;34843;48.744;8.958;2023-03-07T06:06:37;2.20;99.90
3202;DHT22;34843;48.744;8.958;2023-03-07T06:09:03;2.20;99.90
3202;DHT22;34843;48.744;8.958;2023-03-07T06:11:30;2.10;99.90
3202;DHT22;34843;48.744;8.958;2023-03-07T06:13:57;2.20;99.90
3202;DHT22;34843;48.744;8.958;2023-03-07T06:16:22;2.20;99.90
3202;DHT22;34843;48.744;8.958;2023-03-07T06:18:48;2.10;99.90
3202;DHT22;34843;48.744;8.958;2023-03-07T06:21:15;2.20;99.90
3202;DHT22;34843;48.744;8.958;2023-03-07T06:23:41;2.20;99.90
3202;DHT22;34843;48.744;8.958;2023-03-07T06:26:07;2.20;99.90
3202;DHT22;34843;48.744;8.958;2023-03-07T06:28:33;2.20;99.90
3202;DHT22;34843;48.744;8.958;2023-03-07T06:30:59;2.10;99.90
3202;DHT22;34843;48.744;8.958;2023-03-07T06:33:24;2.20;99.90
3202;DHT22;34843;48.744;8.958;2023-03-07T06:35:50;2.30;99.90
3202;DHT22;34843;48.744;8.958;2023-03-07T06:38:16;2.30;99.90
3202;DHT22;34843;48.744;8.958;2023-03-07T06:40:41;2.30;99.90
3202;DHT22;34843;48.744;8.958;2023-03-07T06:43:07;2.30;99.90
3202;DHT22;34843;48.744;8.958;2023-03-07T06:45:33;2.40;99.90
3202;DHT22;34843;48.744;8.958;2023-03-07T06:47:58;2.40;99.90
3202;DHT22;34843;48.744;8.958;2023-03-07T06:50:24;2.50;99.90
3202;DHT22;34843;48.744;8.958;2023-03-07T06:52:49;2.60;99.90
3202;DHT22;34843;48.744;8.958;2023-03-07T06:55:17;2.60;99.90
3202;DHT22;34843;48.744;8.958;2023-03-07T06:57:43;2.70;99.90
3202;DHT22;34843;48.744;8.958;2023-03-07T07:00:09;2.80;99.90
3202;DHT22;34843;48.744;8.958;2023-03-07T07:02:35;3.00;99.90
3202;DHT22;34843;48.744;8.958;2023-03-07T07:05:01;3.20;99.90
3202;DHT22;34843;48.744;8.958;2023-03-07T07:07:27;3.40;99.90
3202;DHT22;34843;48.744;8.958;2023-03-07T07:09:53;3.60;99.90
3202;DHT22;34843;48.744;8.958;2023-03-07T07:12:18;3.70;99.90
3202;DHT22;34843;48.744;8.958;2023-03-07T07:14:44;3.90;99.90
3202;DHT22;34843;48.744;8.958;2023-03-07T07:17:09;4.00;99.90
3202;DHT22;34843;48.744;8.958;2023-03-07T07:19:35;4.10;99.90
3202;DHT22;34843;48.744;8.958;2023-03-07T07:22:01;4.30;99.90
3202;DHT22;34843;48.744;8.958;2023-03-07T07:24:26;4.50;99.90
3202;DHT22;34843;48.744;8.958;2023-03-07T07:26:52;4.70;99.90
3202;DHT22;34843;48.744;8.958;2023-03-07T07:29:18;4.80;99.90
3202;DHT22;34843;48.744;8.958;2023-03-07T07:31:43;5.00;99.90
3202;DHT22;34843;48.744;8.958;2023-03-07T07:34:09;5.20;99.90
3202;DHT22;34843;48.744;8.958;2023-03-07T07:36:34;5.50;99.90
3202;DHT22;34843;48.744;8.958;2023-03-07T07:39:04;5.70;99.90
3202;DHT22;34843;48.744;8.958;2023-03-07T07:41:31;5.80;99.90
3202;DHT22;34843;48.744;8.958;2023-03-07T07:43:57;6.00;99.90
3202;DHT22;34843;48.744;8.958;2023-03-07T07:46:23;6.30;99.90
3202;DHT22;34843;48.744;8.958;2023-03-07T07:48:49;6.60;99.90
3202;DHT22;34843;48.744;8.958;2023-03-07T07:51:14;6.90;99.90
3202;DHT22;34843;48.744;8.958;2023-03-07T07:53:40;7.30;99.90
3202;DHT22;34843;48.744;8.958;2023-03-07T07:56:06;7.90;99.90
3202;DHT22;34843;48.744;8.958;2023-03-07T07:58:32;8.10;99.90
3202;DHT22;34843;48.744;8.958;2023-03-07T08:00:58;8.00;99.90
3202;DHT22;34843;48.744;8.958;2023-03-07T08:03:23;7.90;99.90
3202;DHT22;34843;48.744;8.958;2023-03-07T08:05:49;7.90;99.90
3202;DHT22;34843;48.744;8.958;2023-03-07T08:08:18;8.00;99.90
3202;DHT22;34843;48.744;8.958;2023-03-07T08:10:47;8.00;99.90
3202;DHT22;34843;48.744;8.958;2023-03-07T08:13:15;8.00;99.90
3202;DHT22;34843;48.744;8.958;2023-03-07T08:15:41;7.90;99.90
3202;DHT22;34843;48.744;8.958;2023-03-07T08:18:07;7.80;99.90
3202;DHT22;34843;48.744;8.958;2023-03-07T08:20:36;7.80;99.90
3202;DHT22;34843;48.744;8.958;2023-03-07T08:23:01;7.60;99.90
3202;DHT22;34843;48.744;8.958;2023-03-07T08:25:27;7.50;99.90
3202;DHT22;34843;48.744;8.958;2023-03-07T08:27:54;7.50;99.90
3202;DHT22;34843;48.744;8.958;2023-03-07T08:30:25;7.60;99.90
3202;DHT22;34843;48.744;8.958;2023-03-07T08:32:53;7.50;99.90
3202;DHT22;34843;48.744;8.958;2023-03-07T08:35:19;7.40;99.90
3202;DHT22;34843;48.744;8.958;2023-03-07T08:37:45;7.40;99.90
3202;DHT22;34843;48.744;8.958;2023-03-07T08:40:14;7.20;99.90
3202;DHT22;34843;48.744;8.958;2023-03-07T08:42:43;6.80;99.90
3202;DHT22;34843;48.744;8.958;2023-03-07T08:45:09;6.80;99.90
3202;DHT22;34843;48.744;8.958;2023-03-07T08:47:34;6.90;99.90
3202;DHT22;34843;48.744;8.958;2023-03-07T08:50:00;6.80;99.90
3202;DHT22;34843;48.744;8.958;2023-03-07T08:52:26;6.70;99.90
3202;DHT22;34843;48.744;8.958;2023-03-07T08:54:51;6.50;99.90
3202;DHT22;34843;48.744;8.958;2023-03-07T08:57:17;6.40;99.90
3202;DHT22;34843;48.744;8.958;2023-03-07T08:59:42;6.20;99.90
3202;DHT22;34843;48.744;8.958;2023-03-07T09:02:11;6.10;99.90
3202;DHT22;34843;48.744;8.958;2023-03-07T09:04:37;5.90;99.90
3202;DHT22;34843;48.744;8.958;2023-03-07T09:07:03;5.80;99.90
3202;DHT22;34843;48.744;8.958;2023-03-07T09:09:29;5.70;99.90
3202;DHT22;34843;48.744;8.958;2023-03-07T09:11:55;5.80;99.90
3202;DHT22;34843;48.744;8.958;2023-03-07T09:14:20;5.90;99.90
3202;DHT22;34843;48.744;8.958;2023-03-07T09:16:46;6.10;99.90
3202;DHT22;34843;48.744;8.958;2023-03-07T09:19:11;6.20;99.90
3202;DHT22;34843;48.744;8.958;2023-03-07T09:21:37;6.30;99.90
3202;DHT22;34843;48.744;8.958;2023-03-07T09:24:03;6.50;99.90
3202;DHT22;34843;48.744;8.958;2023-03-07T09:26:29;6.40;99.90
3202;DHT22;34843;48.744;8.958;2023-03-07T09:28:55;6.40;99.90
3202;DHT22;34843;48.744;8.958;2023-03-07T09:31:20;6.30;99.90
3202;DHT22;34843;48.744;8.958;2023-03-07T09:33:46;6.30;99.90
3202;DHT22;34843;48.744;8.958;2023-03-07T09:36:12;6.20;99.90
3202;DHT22;34843;48.744;8.958;2023-03-07T09:38:38;6.10;99.90
3202;DHT22;34843;48.744;8.958;2023-03-07T09:44:10;5.90;99.90
3202;DHT22;34843;48.744;8.958;2023-03-07T09:49:45;5.70;99.90
3202;DHT22;34843;48.744;8.958;2023-03-07T09:52:26;5.50;99.90
3202;DHT22;34843;48.744;8.958;2023-03-07T09:55:03;5.50;99.90
3202;DHT22;34843;48.744;8.958;2023-03-07T09:57:32;5.50;99.90
3202;DHT22;34843;48.744;8.958;2023-03-07T10:02:42;5.40;99.90
3202;DHT22;34843;48.744;8.958;2023-03-07T10:08:03;5.30;99.90
3202;DHT22;34843;48.744;8.958;2023-03-07T10:10:35;5.20;99.90
3202;DHT22;34843;48.744;8.958;2023-03-07T10:13:30;5.20;99.90
3202;DHT22;34843;48.744;8.958;2023-03-07T10:16:04;5.10;99.90
3202;DHT22;34843;48.744;8.958;2023-03-07T10:24:41;5.00;99.90
3202;DHT22;34843;48.744;8.958;2023-03-07T10:27:11;5.00;99.90
3202;DHT22;34843;48.744;8.958;2023-03-07T10:29:46;5.00;99.90
3202;DHT22;34843;48.744;8.958;2023-03-07T10:34:44;5.00;99.90
3202;DHT22;34843;48.744;8.958;2023-03-07T10:37:20;5.10;99.90
3202;DHT22;34843;48.744;8.958;2023-03-07T10:39:50;5.10;99.90
3202;DHT22;34843;48.744;8.958;2023-03-07T10:42:24;5.10;99.90
3202;DHT22;34843;48.744;8.958;2023-03-07T10:44:51;5.00;99.90
3202;DHT22;34843;48.744;8.958;2023-03-07T10:47:22;5.00;99.90
3202;DHT22;34843;48.744;8.958;2023-03-07T10:49:50;4.90;99.90
3202;DHT22;34843;48.744;8.958;2023-03-07T10:52:32;4.90;99.90
3202;DHT22;34843;48.744;8.958;2023-03-07T10:58:17;4.90;99.90
3202;DHT22;34843;48.744;8.958;2023-03-07T11:03:35;4.90;99.90
3202;DHT22;34843;48.744;8.958;2023-03-07T11:06:03;4.80;99.90
3202;DHT22;34843;48.744;8.958;2023-03-07T11:08:34;5.00;99.90
3202;DHT22;34843;48.744;8.958;2023-03-07T11:11:02;5.00;99.90
3202;DHT22;34843;48.744;8.958;2023-03-07T11:13:29;4.90;99.90
3202;DHT22;34843;48.744;8.958;2023-03-07T11:16:28;4.90;99.90
3202;DHT22;34843;48.744;8.958;2023-03-07T11:18:56;4.90;99.90
3202;DHT22;34843;48.744;8.958;2023-03-07T11:21:26;4.90;99.90
3202;DHT22;34843;48.744;8.958;2023-03-07T11:24:03;4.80;99.90
3202;DHT22;34843;48.744;8.958;2023-03-07T11:26:32;4.80;99.90
3202;DHT22;34843;48.744;8.958;2023-03-07T11:29:09;4.80;99.90
3202;DHT22;34843;48.744;8.958;2023-03-07T11:31:51;4.80;99.90
3202;DHT22;34843;48.744;8.958;2023-03-07T11:34:36;4.90;99.90
3202;DHT22;34843;48.744;8.958;2023-03-07T11:37:34;5.10;99.90
3202;DHT22;34843;48.744;8.958;2023-03-07T11:48:37;5.10;99.90
3202;DHT22;34843;48.744;8.958;2023-03-07T11:51:25;5.00;99.90
3202;DHT22;34843;48.744;8.958;2023-03-07T11:54:02;5.10;99.90
3202;DHT22;34843;48.744;8.958;2023-03-07T11:56:37;5.10;99.90
3202;DHT22;34843;48.744;8.958;2023-03-07T11:59:26;5.20;99.90
3202;DHT22;34843;48.744;8.958;2023-03-07T12:01:56;5.10;99.90
3202;DHT22;34843;48.744;8.958;2023-03-07T12:04:44;5.00;99.90
3202;DHT22;34843;48.744;8.958;2023-03-07T12:07:26;5.10;99.90
3202;DHT22;34843;48.744;8.958;2023-03-07T12:10:02;5.40;99.90
3202;DHT22;34843;48.744;8.958;2023-03-07T12:15:35;6.20;99.90
3202;DHT22;34843;48.744;8.958;2023-03-07T12:18:22;6.50;99.90
3202;DHT22;34843;48.744;8.958;2023-03-07T12:23:48;7.00;99.90
3202;DHT22;34843;48.744;8.958;2023-03-07T12:26:23;7.10;99.90
3202;DHT22;34843;48.744;8.958;2023-03-07T12:29:15;7.20;99.90
3202;DHT22;34843;48.744;8.958;2023-03-07T12:31:46;7.20;99.90
3202;DHT22;34843;48.744;8.958;2023-03-07T12:34:19;7.40;99.90
3202;DHT22;34843;48.744;8.958;2023-03-07T12:37:01;7.60;99.90
3202;DHT22;34843;48.744;8.958;2023-03-07T12:39:51;7.70;99.90
3202;DHT22;34843;48.744;8.958;2023-03-07T12:45:46;8.00;99.90
3202;DHT22;34843;48.744;8.958;2023-03-07T12:48:40;8.20;99.90
3202;DHT22;34843;48.744;8.958;2023-03-07T12:51:25;8.20;99.90
3202;DHT22;34843;48.744;8.958;2023-03-07T12:56:39;8.00;99.90
3202;DHT22;34843;48.744;8.958;2023-03-07T12:59:11;7.90;99.90
3202;DHT22;34843;48.744;8.958;2023-03-07T13:02:02;7.90;99.90
3202;DHT22;34843;48.744;8.958;2023-03-07T13:04:36;7.90;99.90
3202;DHT22;34843;48.744;8.958;2023-03-07T13:07:11;7.70;99.90
3202;DHT22;34843;48.744;8.958;2023-03-07T13:09:39;7.90;99.90
3202;DHT22;34843;48.744;8.958;2023-03-07T13:28:14;7.70;99.90
3202;DHT22;34843;48.744;8.958;2023-03-07T13:31:21;7.60;99.90
3202;DHT22;34843;48.744;8.958;2023-03-07T13:33:51;7.60;99.90
3202;DHT22;34843;48.744;8.958;2023-03-07T13:36:36;7.70;99.90
3202;DHT22;34843;48.744;8.958;2023-03-07T13:39:33;7.80;99.90
3202;DHT22;34843;48.744;8.958;2023-03-07T13:41:50;7.80;99.90
3202;DHT22;34843;48.744;8.958;2023-03-07T13:47:00;7.80;99.90
3202;DHT22;34843;48.744;8.958;2023-03-07T13:49:35;7.80;99.90
3202;DHT22;34843;48.744;8.958;2023-03-07T13:52:23;7.90;99.90
3202;DHT22;34843;48.744;8.958;2023-03-07T13:54:55;7.90;99.90
3202;DHT22;34843;48.744;8.958;2023-03-07T13:57:23;8.00;99.90
3202;DHT22;34843;48.744;8.958;2023-03-07T13:59:50;8.00;99.90
3202;DHT22;34843;48.744;8.958;2023-03-07T14:02:16;8.10;99.90
3202;DHT22;34843;48.744;8.958;2023-03-07T14:04:43;8.20;99.90
3202;DHT22;34843;48.744;8.958;2023-03-07T14:07:20;8.50;99.90
3202;DHT22;34843;48.744;8.958;2023-03-07T14:09:55;8.60;99.90
3202;DHT22;34843;48.744;8.958;2023-03-07T14:15:23;8.50;99.90
3202;DHT22;34843;48.744;8.958;2023-03-07T14:18:24;8.10;99.90
3202;DHT22;34843;48.744;8.958;2023-03-07T14:27:02;7.30;99.90
3202;DHT22;34843;48.744;8.958;2023-03-07T14:29:28;7.30;99.90
3202;DHT22;34843;48.744;8.958;2023-03-07T14:31:57;7.20;99.90
3202;DHT22;34843;48.744;8.958;2023-03-07T14:34:33;7.10;99.90
3202;DHT22;34843;48.744;8.958;2023-03-07T14:37:06;7.00;99.90
3202;DHT22;34843;48.744;8.958;2023-03-07T14:39:46;6.90;99.90
3202;DHT22;34843;48.744;8.958;2023-03-07T14:47:39;6.00;99.90
3202;DHT22;34843;48.744;8.958;2023-03-07T14:50:20;4.90;99.90
3202;DHT22;34843;48.744;8.958;2023-03-07T14:52:48;6.00;99.90
3202;DHT22;34843;48.744;8.958;2023-03-07T14:55:18;6.10;99.90
3202;DHT22;34843;48.744;8.958;2023-03-07T14:57:47;6.20;99.90
3202;DHT22;34843;48.744;8.958;2023-03-07T15:05:23;6.40;99.90
3202;DHT22;34843;48.744;8.958;2023-03-07T15:07:49;6.50;99.90
3202;DHT22;34843;48.744;8.958;2023-03-07T15:10:28;6.50;99.90
3202;DHT22;34843;48.744;8.958;2023-03-07T15:12:55;6.50;99.90
3202;DHT22;34843;48.744;8.958;2023-03-07T15:15:35;6.60;99.90
3202;DHT22;34843;48.744;8.958;2023-03-07T15:18:05;6.40;99.90
3202;DHT22;34843;48.744;8.958;2023-03-07T15:20:36;6.30;99.90
3202;DHT22;34843;48.744;8.958;2023-03-07T15:23:06;6.30;99.90
3202;DHT22;34843;48.744;8.958;2023-03-07T15:25:33;6.30;99.90
3202;DHT22;34843;48.744;8.958;2023-03-07T15:28:05;6.30;99.90
3202;DHT22;34843;48.744;8.958;2023-03-07T15:30:34;6.40;99.90
3202;DHT22;34843;48.744;8.958;2023-03-07T15:35:42;6.20;99.90
3202;DHT22;34843;48.744;8.958;2023-03-07T15:38:17;6.10;99.90
3202;DHT22;34843;48.744;8.958;2023-03-07T15:40:45;6.20;99.90
3202;DHT22;34843;48.744;8.958;2023-03-07T15:46:15;6.50;99.90
3202;DHT22;34843;48.744;8.958;2023-03-07T15:48:50;6.60;99.90
3202;DHT22;34843;48.744;8.958;2023-03-07T15:51:20;6.70;99.90
3202;DHT22;34843;48.744;8.958;2023-03-07T15:53:56;6.80;99.90
3202;DHT22;34843;48.744;8.958;2023-03-07T15:56:33;6.80;99.90
3202;DHT22;34843;48.744;8.958;2023-03-07T15:59:04;6.70;99.90
3202;DHT22;34843;48.744;8.958;2023-03-07T16:01:32;6.80;99.90
3202;DHT22;34843;48.744;8.958;2023-03-07T16:04:01;6.50;99.90
3202;DHT22;34843;48.744;8.958;2023-03-07T16:06:38;6.30;99.90
3202;DHT22;34843;48.744;8.958;2023-03-07T16:09:05;6.20;99.90
3202;DHT22;34843;48.744;8.958;2023-03-07T16:11:31;6.00;99.90
3202;DHT22;34843;48.744;8.958;2023-03-07T16:13:57;6.00;99.90
3202;DHT22;34843;48.744;8.958;2023-03-07T16:16:25;6.00;99.90
3202;DHT22;34843;48.744;8.958;2023-03-07T16:18:52;6.00;99.90
3202;DHT22;34843;48.744;8.958;2023-03-07T16:21:19;6.00;99.90
3202;DHT22;34843;48.744;8.958;2023-03-07T16:23:45;5.90;99.90
3202;DHT22;34843;48.744;8.958;2023-03-07T16:26:16;5.80;99.90
3202;DHT22;34843;48.744;8.958;2023-03-07T16:28:42;5.70;99.90
3202;DHT22;34843;48.744;8.958;2023-03-07T16:31:12;5.60;99.90
3202;DHT22;34843;48.744;8.958;2023-03-07T16:33:38;5.50;99.90
3202;DHT22;34843;48.744;8.958;2023-03-07T16:36:04;5.50;99.90
3202;DHT22;34843;48.744;8.958;2023-03-07T16:38:29;5.50;99.90
3202;DHT22;34843;48.744;8.958;2023-03-07T16:40:55;5.50;99.90
3202;DHT22;34843;48.744;8.958;2023-03-07T16:45:50;5.40;99.90
3202;DHT22;34843;48.744;8.958;2023-03-07T16:48:16;5.30;99.90
3202;DHT22;34843;48.744;8.958;2023-03-07T16:50:41;5.30;99.90
3202;DHT22;34843;48.744;8.958;2023-03-07T16:53:07;5.20;99.90
3202;DHT22;34843;48.744;8.958;2023-03-07T16:55:33;5.10;99.90
3202;DHT22;34843;48.744;8.958;2023-03-07T16:58:00;4.90;99.90
3202;DHT22;34843;48.744;8.958;2023-03-07T17:00:28;4.80;99.90
3202;DHT22;34843;48.744;8.958;2023-03-07T17:02:57;4.70;99.90
3202;DHT22;34843;48.744;8.958;2023-03-07T17:05:25;4.60;99.90
3202;DHT22;34843;48.744;8.958;2023-03-07T17:07:56;4.40;99.90
3202;DHT22;34843;48.744;8.958;2023-03-07T17:10:23;4.40;99.90
3202;DHT22;34843;48.744;8.958;2023-03-07T17:12:51;4.30;99.90
3202;DHT22;34843;48.744;8.958;2023-03-07T17:15:21;4.20;99.90
3202;DHT22;34843;48.744;8.958;2023-03-07T17:17:48;4.10;99.90
3202;DHT22;34843;48.744;8.958;2023-03-07T17:20:16;4.00;99.90
3202;DHT22;34843;48.744;8.958;2023-03-07T17:22:44;4.00;99.90
3202;DHT22;34843;48.744;8.958;2023-03-07T17:25:10;3.90;99.90
3202;DHT22;34843;48.744;8.958;2023-03-07T17:27:40;3.80;99.90
3202;DHT22;34843;48.744;8.958;2023-03-07T17:30:07;3.70;99.90
3202;DHT22;34843;48.744;8.958;2023-03-07T17:32:34;3.70;99.90
3202;DHT22;34843;48.744;8.958;2023-03-07T17:34:59;3.60;99.90
3202;DHT22;34843;48.744;8.958;2023-03-07T17:37:25;3.50;99.90
3202;DHT22;34843;48.744;8.958;2023-03-07T17:39:53;3.40;99.90
3202;DHT22;34843;48.744;8.958;2023-03-07T17:42:19;3.30;99.90
3202;DHT22;34843;48.744;8.958;2023-03-07T17:44:44;3.20;99.90
3202;DHT22;34843;48.744;8.958;2023-03-07T17:47:10;3.20;99.90
3202;DHT22;34843;48.744;8.958;2023-03-07T17:49:38;3.10;99.90